sensor_id;sensor_type;location;lat;lon;timestamp;temperature;humidity
21928;DHT22;11128;51.096;17.190;2023-02-26T00:07:53;0.70;99.90
21928;DHT22;11128;51.096;17.190;2023-02-26T00:12:55;0.70;99.90
21928;DHT22;11128;51.096;17.190;2023-02-26T00:18:08;0.70;99.90
21928;DHT22;11128;51.096;17.190;2023-02-26T00:23:13;0.70;99.90
21928;DHT22;11128;51.096;17.190;2023-02-26T00:28:14;0.60;1.00
21928;DHT22;11128;51.096;17.190;2023-02-26T00:33:16;0.40;1.00
21928;DHT22;11128;51.096;17.190;2023-02-26T00:38:17;0.60;1.00
21928;DHT22;11128;51.096;17.190;2023-02-26T00:43:24;0.60;1.00
21928;DHT22;11128;51.096;17.190;2023-02-26T00:53:51;0.40;99.90
21928;DHT22;11128;51.096;17.190;2023-02-26T00:58:54;0.40;99.90
21928;DHT22;11128;51.096;17.190;2023-02-26T01:03:55;0.40;99.90
21928;DHT22;11128;51.096;17.190;2023-02-26T01:14:09;0.50;30.30
21928;DHT22;11128;51.096;17.190;2023-02-26T01:19:23;0.50;99.90
21928;DHT22;11128;51.096;17.190;2023-02-26T01:24:28;0.40;99.90
21928;DHT22;11128;51.096;17.190;2023-02-26T01:29:31;0.40;99.90
21928;DHT22;11128;51.096;17.190;2023-02-26T01:45:46;0.40;26.40
21928;DHT22;11128;51.096;17.190;2023-02-26T01:50:52;0.40;99.90
21928;DHT22;11128;51.096;17.190;2023-02-26T01:56:03;0.40;99.90
21928;DHT22;11128;51.096;17.190;2023-02-26T02:01:06;0.40;99.90
21928;DHT22;11128;51.096;17.190;2023-02-26T02:06:10;0.40;99.90
21928;DHT22;11128;51.096;17.190;2023-02-26T02:11:14;0.40;99.90
21928;DHT22;11128;51.096;17.190;2023-02-26T02:16:47;0.50;1.00
21928;DHT22;11128;51.096;17.190;2023-02-26T02:27:23;0.40;1.00
21928;DHT22;11128;51.096;17.190;2023-02-26T02:37:57;0.40;1.00
21928;DHT22;11128;51.096;17.190;2023-02-26T02:43:18;0.50;1.00
21928;DHT22;11128;51.096;17.190;2023-02-26T02:48:31;0.40;1.00
21928;DHT22;11128;51.096;17.190;2023-02-26T02:53:46;0.40;1.00
21928;DHT22;11128;51.096;17.190;2023-02-26T02:58:56;0.40;1.00
21928;DHT22;11128;51.096;17.190;2023-02-26T03:04:12;0.40;1.00
21928;DHT22;11128;51.096;17.190;2023-02-26T03:09:15;0.50;1.00
21928;DHT22;11128;51.096;17.190;2023-02-26T03:14:16;0.50;99.90
21928;DHT22;11128;51.096;17.190;2023-02-26T03:24:36;0.40;99.90
21928;DHT22;11128;51.096;17.190;2023-02-26T03:29:58;0.40;1.00
21928;DHT22;11128;51.096;17.190;2023-02-26T03:35:14;0.30;1.00
21928;DHT22;11128;51.096;17.190;2023-02-26T03:45:33;0.30;99.90
21928;DHT22;11128;51.096;17.190;2023-02-26T03:50:40;1.90;1.00
21928;DHT22;11128;51.096;17.190;2023-02-26T03:55:54;0.30;1.00
21928;DHT22;11128;51.096;17.190;2023-02-26T04:01:00;0.30;1.00
21928;DHT22;11128;51.096;17.190;2023-02-26T04:06:03;0.50;1.00
21928;DHT22;11128;51.096;17.190;2023-02-26T04:11:05;0.30;1.00
21928;DHT22;11128;51.096;17.190;2023-02-26T04:16:08;0.30;1.00
21928;DHT22;11128;51.096;17.190;2023-02-26T04:21:16;0.30;99.90
21928;DHT22;11128;51.096;17.190;2023-02-26T04:26:18;0.20;1.00
21928;DHT22;11128;51.096;17.190;2023-02-26T04:31:19;0.20;1.00
21928;DHT22;11128;51.096;17.190;2023-02-26T04:36:21;0.10;1.00
21928;DHT22;11128;51.096;17.190;2023-02-26T04:41:22;0.10;1.00
21928;DHT22;11128;51.096;17.190;2023-02-26T04:46:23;0.30;99.90
21928;DHT22;11128;51.096;17.190;2023-02-26T04:51:24;0.20;99.90
21928;DHT22;11128;51.096;17.190;2023-02-26T04:56:25;0.10;99.90
21928;DHT22;11128;51.096;17.190;2023-02-26T05:01:27;0.10;99.90
21928;DHT22;11128;51.096;17.190;2023-02-26T05:16:30;0.10;99.90
21928;DHT22;11128;51.096;17.190;2023-02-26T05:26:33;-0.10;99.90
21928;DHT22;11128;51.096;17.190;2023-02-26T05:31:34;-0.10;1.00
21928;DHT22;11128;51.096;17.190;2023-02-26T05:36:35;0.30;99.90
21928;DHT22;11128;51.096;17.190;2023-02-26T05:41:36;-0.20;99.90
21928;DHT22;11128;51.096;17.190;2023-02-26T05:46:38;0.10;1.00
21928;DHT22;11128;51.096;17.190;2023-02-26T05:56:42;0.20;99.90
21928;DHT22;11128;51.096;17.190;2023-02-26T06:06:44;0.00;1.00
21928;DHT22;11128;51.096;17.190;2023-02-26T06:11:46;0.10;1.00
21928;DHT22;11128;51.096;17.190;2023-02-26T06:16:47;0.80;1.00
21928;DHT22;11128;51.096;17.190;2023-02-26T06:21:48;0.20;1.00
21928;DHT22;11128;51.096;17.190;2023-02-26T06:26:49;0.00;1.00
21928;DHT22;11128;51.096;17.190;2023-02-26T06:31:51;0.10;1.00
21928;DHT22;11128;51.096;17.190;2023-02-26T06:36:52;-0.20;1.00
21928;DHT22;11128;51.096;17.190;2023-02-26T06:41:53;0.00;1.00
21928;DHT22;11128;51.096;17.190;2023-02-26T06:46:54;0.30;1.00
21928;DHT22;11128;51.096;17.190;2023-02-26T06:51:55;0.40;1.00
21928;DHT22;11128;51.096;17.190;2023-02-26T06:56:56;0.30;1.00
21928;DHT22;11128;51.096;17.190;2023-02-26T07:01:57;0.40;99.90
21928;DHT22;11128;51.096;17.190;2023-02-26T07:06:59;0.60;1.00
21928;DHT22;11128;51.096;17.190;2023-02-26T07:12:00;0.60;1.00
21928;DHT22;11128;51.096;17.190;2023-02-26T07:17:01;0.50;1.00
21928;DHT22;11128;51.096;17.190;2023-02-26T07:22:03;0.60;99.90
21928;DHT22;11128;51.096;17.190;2023-02-26T07:27:04;0.60;96.80
21928;DHT22;11128;51.096;17.190;2023-02-26T07:32:05;0.50;1.00
21928;DHT22;11128;51.096;17.190;2023-02-26T07:37:07;0.40;99.90
21928;DHT22;11128;51.096;17.190;2023-02-26T07:47:11;0.70;99.90
21928;DHT22;11128;51.096;17.190;2023-02-26T07:52:12;0.60;99.90
21928;DHT22;11128;51.096;17.190;2023-02-26T07:57:13;0.70;99.90
21928;DHT22;11128;51.096;17.190;2023-02-26T08:02:14;0.90;1.00
21928;DHT22;11128;51.096;17.190;2023-02-26T08:07:17;2.10;1.00
21928;DHT22;11128;51.096;17.190;2023-02-26T08:12:18;0.80;1.00
21928;DHT22;11128;51.096;17.190;2023-02-26T08:17:20;0.80;1.00
21928;DHT22;11128;51.096;17.190;2023-02-26T08:22:21;1.80;1.00
21928;DHT22;11128;51.096;17.190;2023-02-26T08:27:23;0.90;1.00
21928;DHT22;11128;51.096;17.190;2023-02-26T08:32:25;1.50;99.90
21928;DHT22;11128;51.096;17.190;2023-02-26T08:37:28;1.10;99.90
21928;DHT22;11128;51.096;17.190;2023-02-26T08:42:29;1.20;1.00
21928;DHT22;11128;51.096;17.190;2023-02-26T08:47:30;1.30;1.00
21928;DHT22;11128;51.096;17.190;2023-02-26T08:52:31;2.40;1.00
21928;DHT22;11128;51.096;17.190;2023-02-26T08:57:33;1.40;1.00
21928;DHT22;11128;51.096;17.190;2023-02-26T09:02:34;1.30;99.90
21928;DHT22;11128;51.096;17.190;2023-02-26T09:07:36;1.80;14.30
21928;DHT22;11128;51.096;17.190;2023-02-26T09:12:37;1.20;1.00
21928;DHT22;11128;51.096;17.190;2023-02-26T09:17:39;1.30;61.30
21928;DHT22;11128;51.096;17.190;2023-02-26T09:22:40;2.30;1.00
21928;DHT22;11128;51.096;17.190;2023-02-26T09:27:42;1.50;1.00
21928;DHT22;11128;51.096;17.190;2023-02-26T09:32:43;2.80;99.90
21928;DHT22;11128;51.096;17.190;2023-02-26T09:37:45;1.60;1.00
21928;DHT22;11128;51.096;17.190;2023-02-26T09:42:59;1.80;1.00
21928;DHT22;11128;51.096;17.190;2023-02-26T09:48:04;1.70;99.90
21928;DHT22;11128;51.096;17.190;2023-02-26T09:53:21;1.80;1.00
21928;DHT22;11128;51.096;17.190;2023-02-26T10:14:49;2.00;99.90
21928;DHT22;11128;51.096;17.190;2023-02-26T10:19:57;2.00;1.00
21928;DHT22;11128;51.096;17.190;2023-02-26T10:25:12;2.00;1.00
21928;DHT22;11128;51.096;17.190;2023-02-26T10:35:28;2.60;99.90
21928;DHT22;11128;51.096;17.190;2023-02-26T10:40:54;2.90;1.00
21928;DHT22;11128;51.096;17.190;2023-02-26T10:51:13;3.00;99.90
21928;DHT22;11128;51.096;17.190;2023-02-26T10:56:21;2.80;1.00
21928;DHT22;11128;51.096;17.190;2023-02-26T11:01:27;2.60;1.00
21928;DHT22;11128;51.096;17.190;2023-02-26T11:06:33;3.10;1.00
21928;DHT22;11128;51.096;17.190;2023-02-26T11:17:03;2.90;1.00
21928;DHT22;11128;51.096;17.190;2023-02-26T11:22:10;3.20;99.90
21928;DHT22;11128;51.096;17.190;2023-02-26T11:27:19;3.20;99.90
21928;DHT22;11128;51.096;17.190;2023-02-26T11:32:33;3.30;1.00
21928;DHT22;11128;51.096;17.190;2023-02-26T11:37:37;4.00;1.00
21928;DHT22;11128;51.096;17.190;2023-02-26T11:42:52;3.70;1.00
21928;DHT22;11128;51.096;17.190;2023-02-26T11:48:00;4.00;99.90
21928;DHT22;11128;51.096;17.190;2023-02-26T11:53:09;4.10;99.90
21928;DHT22;11128;51.096;17.190;2023-02-26T11:58:21;4.00;1.00
21928;DHT22;11128;51.096;17.190;2023-02-26T12:03:28;4.90;1.00
21928;DHT22;11128;51.096;17.190;2023-02-26T12:08:37;4.20;1.00
21928;DHT22;11128;51.096;17.190;2023-02-26T12:29:53;3.10;99.90
21928;DHT22;11128;51.096;17.190;2023-02-26T12:45:53;4.10;1.00
21928;DHT22;11128;51.096;17.190;2023-02-26T13:01:44;5.70;99.90
21928;DHT22;11128;51.096;17.190;2023-02-26T13:17:58;9.40;1.00
21928;DHT22;11128;51.096;17.190;2023-02-26T13:23:07;10.40;1.00
21928;DHT22;11128;51.096;17.190;2023-02-26T13:33:27;10.70;1.00
21928;DHT22;11128;51.096;17.190;2023-02-26T13:50:15;7.70;1.00
21928;DHT22;11128;51.096;17.190;2023-02-26T13:54:45;5.40;99.90
21928;DHT22;11128;51.096;17.190;2023-02-26T14:10:43;2.40;1.00
21928;DHT22;11128;51.096;17.190;2023-02-26T14:16:20;2.30;1.00
21928;DHT22;11128;51.096;17.190;2023-02-26T14:21:45;2.50;99.90
21928;DHT22;11128;51.096;17.190;2023-02-26T14:27:19;4.00;45.60
21928;DHT22;11128;51.096;17.190;2023-02-26T14:38:17;6.10;1.00
21928;DHT22;11128;51.096;17.190;2023-02-26T14:43:42;7.20;1.00
21928;DHT22;11128;51.096;17.190;2023-02-26T14:48:46;6.60;99.90
21928;DHT22;11128;51.096;17.190;2023-02-26T15:04:32;4.70;1.00
21928;DHT22;11128;51.096;17.190;2023-02-26T15:25:32;2.80;1.00
21928;DHT22;11128;51.096;17.190;2023-02-26T15:30:34;2.70;99.90
21928;DHT22;11128;51.096;17.190;2023-02-26T15:35:36;2.70;1.00
21928;DHT22;11128;51.096;17.190;2023-02-26T15:40:38;2.70;1.00
21928;DHT22;11128;51.096;17.190;2023-02-26T15:45:45;3.30;99.90
21928;DHT22;11128;51.096;17.190;2023-02-26T15:50:52;3.80;99.90
21928;DHT22;11128;51.096;17.190;2023-02-26T15:55:55;3.60;99.90
21928;DHT22;11128;51.096;17.190;2023-02-26T16:01:00;3.90;1.00
21928;DHT22;11128;51.096;17.190;2023-02-26T16:06:02;2.90;1.00
21928;DHT22;11128;51.096;17.190;2023-02-26T16:11:04;2.60;99.90
21928;DHT22;11128;51.096;17.190;2023-02-26T16:16:25;2.70;1.00
21928;DHT22;11128;51.096;17.190;2023-02-26T16:21:31;2.00;1.00
21928;DHT22;11128;51.096;17.190;2023-02-26T16:26:38;2.30;99.90
21928;DHT22;11128;51.096;17.190;2023-02-26T16:31:42;2.10;1.00
21928;DHT22;11128;51.096;17.190;2023-02-26T16:36:45;2.00;1.00
21928;DHT22;11128;51.096;17.190;2023-02-26T16:42:01;1.90;1.00
21928;DHT22;11128;51.096;17.190;2023-02-26T16:47:03;2.90;1.00
21928;DHT22;11128;51.096;17.190;2023-02-26T16:52:05;1.70;1.00
21928;DHT22;11128;51.096;17.190;2023-02-26T16:57:19;1.60;99.90
21928;DHT22;11128;51.096;17.190;2023-02-26T17:02:32;1.50;95.80
21928;DHT22;11128;51.096;17.190;2023-02-26T17:07:44;1.40;99.90
21928;DHT22;11128;51.096;17.190;2023-02-26T17:12:52;1.70;99.90
21928;DHT22;11128;51.096;17.190;2023-02-26T17:17:53;1.20;1.00
21928;DHT22;11128;51.096;17.190;2023-02-26T17:23:00;1.00;99.90
21928;DHT22;11128;51.096;17.190;2023-02-26T17:28:04;1.00;1.00
21928;DHT22;11128;51.096;17.190;2023-02-26T17:33:05;0.90;1.00
21928;DHT22;11128;51.096;17.190;2023-02-26T17:38:10;0.90;1.00
21928;DHT22;11128;51.096;17.190;2023-02-26T17:43:13;0.70;99.90
21928;DHT22;11128;51.096;17.190;2023-02-26T17:48:15;0.80;1.00
21928;DHT22;11128;51.096;17.190;2023-02-26T17:53:19;0.80;99.90
21928;DHT22;11128;51.096;17.190;2023-02-26T17:58:29;0.80;29.70
21928;DHT22;11128;51.096;17.190;2023-02-26T18:03:32;0.80;1.00
21928;DHT22;11128;51.096;17.190;2023-02-26T18:08:34;1.50;1.00
21928;DHT22;11128;51.096;17.190;2023-02-26T18:13:35;0.90;99.90
21928;DHT22;11128;51.096;17.190;2023-02-26T18:18:36;0.90;84.10
21928;DHT22;11128;51.096;17.190;2023-02-26T18:23:38;1.00;1.00
21928;DHT22;11128;51.096;17.190;2023-02-26T18:28:40;1.00;1.00
21928;DHT22;11128;51.096;17.190;2023-02-26T18:33:42;1.00;1.00
21928;DHT22;11128;51.096;17.190;2023-02-26T18:38:44;1.10;1.00
21928;DHT22;11128;51.096;17.190;2023-02-26T18:43:46;1.00;99.90
21928;DHT22;11128;51.096;17.190;2023-02-26T18:48:47;1.00;99.90
21928;DHT22;11128;51.096;17.190;2023-02-26T18:53:48;1.00;24.50
21928;DHT22;11128;51.096;17.190;2023-02-26T18:58:50;0.80;1.00
21928;DHT22;11128;51.096;17.190;2023-02-26T19:03:51;0.70;99.90
21928;DHT22;11128;51.096;17.190;2023-02-26T19:08:53;0.70;1.00
21928;DHT22;11128;51.096;17.190;2023-02-26T19:13:54;0.60;1.00
21928;DHT22;11128;51.096;17.190;2023-02-26T19:18:56;0.50;53.30
21928;DHT22;11128;51.096;17.190;2023-02-26T19:24:00;0.50;99.90
21928;DHT22;11128;51.096;17.190;2023-02-26T19:29:03;0.50;99.90
21928;DHT22;11128;51.096;17.190;2023-02-26T19:34:06;0.50;99.90
21928;DHT22;11128;51.096;17.190;2023-02-26T19:39:07;0.50;99.90
21928;DHT22;11128;51.096;17.190;2023-02-26T19:44:09;0.60;99.90
21928;DHT22;11128;51.096;17.190;2023-02-26T19:49:10;1.80;99.90
21928;DHT22;11128;51.096;17.190;2023-02-26T19:54:12;0.60;1.00
21928;DHT22;11128;51.096;17.190;2023-02-26T19:59:14;1.40;1.00
21928;DHT22;11128;51.096;17.190;2023-02-26T20:04:16;0.60;1.00
21928;DHT22;11128;51.096;17.190;2023-02-26T20:09:17;0.80;99.90
21928;DHT22;11128;51.096;17.190;2023-02-26T20:14:20;0.60;99.90
21928;DHT22;11128;51.096;17.190;2023-02-26T20:19:21;0.60;1.00
21928;DHT22;11128;51.096;17.190;2023-02-26T20:24:23;0.80;1.00
21928;DHT22;11128;51.096;17.190;2023-02-26T20:29:24;0.50;99.90
21928;DHT22;11128;51.096;17.190;2023-02-26T20:34:26;0.50;1.00
21928;DHT22;11128;51.096;17.190;2023-02-26T20:39:27;0.50;14.60
21928;DHT22;11128;51.096;17.190;2023-02-26T20:44:29;0.50;1.00
21928;DHT22;11128;51.096;17.190;2023-02-26T20:49:30;0.50;1.00
21928;DHT22;11128;51.096;17.190;2023-02-26T20:54:32;0.50;1.00
21928;DHT22;11128;51.096;17.190;2023-02-26T20:59:33;1.80;1.00
21928;DHT22;11128;51.096;17.190;2023-02-26T21:04:34;0.60;1.00
21928;DHT22;11128;51.096;17.190;2023-02-26T21:09:36;0.60;1.00
21928;DHT22;11128;51.096;17.190;2023-02-26T21:14:41;1.80;99.90
21928;DHT22;11128;51.096;17.190;2023-02-26T21:19:43;0.60;99.90
21928;DHT22;11128;51.096;17.190;2023-02-26T21:24:45;0.50;99.90
21928;DHT22;11128;51.096;17.190;2023-02-26T21:29:47;0.50;1.00
21928;DHT22;11128;51.096;17.190;2023-02-26T21:34:48;0.50;99.90
21928;DHT22;11128;51.096;17.190;2023-02-26T21:39:50;0.50;1.00
21928;DHT22;11128;51.096;17.190;2023-02-26T21:44:52;0.50;99.90
21928;DHT22;11128;51.096;17.190;2023-02-26T21:49:53;0.50;99.90
21928;DHT22;11128;51.096;17.190;2023-02-26T21:54:55;0.50;1.00
21928;DHT22;11128;51.096;17.190;2023-02-26T21:59:59;0.50;99.90
21928;DHT22;11128;51.096;17.190;2023-02-26T22:05:01;0.50;1.00
21928;DHT22;11128;51.096;17.190;2023-02-26T22:10:04;0.50;99.90
21928;DHT22;11128;51.096;17.190;2023-02-26T22:15:06;0.50;1.00
21928;DHT22;11128;51.096;17.190;2023-02-26T22:20:08;0.50;99.90
21928;DHT22;11128;51.096;17.190;2023-02-26T22:25:11;0.50;1.00
21928;DHT22;11128;51.096;17.190;2023-02-26T22:30:13;1.30;1.00
21928;DHT22;11128;51.096;17.190;2023-02-26T22:35:14;0.60;1.00
21928;DHT22;11128;51.096;17.190;2023-02-26T22:40:17;1.60;1.00
21928;DHT22;11128;51.096;17.190;2023-02-26T22:45:18;0.50;1.00
21928;DHT22;11128;51.096;17.190;2023-02-26T22:50:20;0.50;1.00
21928;DHT22;11128;51.096;17.190;2023-02-26T22:55:21;0.50;1.00
21928;DHT22;11128;51.096;17.190;2023-02-26T23:00:22;0.50;1.00
21928;DHT22;11128;51.096;17.190;2023-02-26T23:05:24;0.50;1.00
21928;DHT22;11128;51.096;17.190;2023-02-26T23:10:26;0.50;1.00
21928;DHT22;11128;51.096;17.190;2023-02-26T23:15:27;0.50;1.00
21928;DHT22;11128;51.096;17.190;2023-02-26T23:20:28;0.50;1.00
21928;DHT22;11128;51.096;17.190;2023-02-26T23:25:30;0.50;1.00
21928;DHT22;11128;51.096;17.190;2023-02-26T23:30:31;0.50;1.00
21928;DHT22;11128;51.096;17.190;2023-02-26T23:35:34;0.90;1.00
21928;DHT22;11128;51.096;17.190;2023-02-26T23:40:36;0.50;1.00
21928;DHT22;11128;51.096;17.190;2023-02-26T23:45:37;0.50;1.00
21928;DHT22;11128;51.096;17.190;2023-02-26T23:50:38;0.50;1.00
21928;DHT22;11128;51.096;17.190;2023-02-26T23:55:40;0.60;1.00
